Time,TemperatureF,DewpointF,PressureIn,WindDirection,WindDirectionDegrees,WindSpeedMPH,WindSpeedGustMPH,Humidity,HourlyPrecipIn,Conditions,Clouds,dailyrainin,SoftwareType,DateUTC
2013-03-22 00:01:00,23.7,19.0,30.08,ESE,114,1.0,3.0,82,0.00,,,0.00,WeatherCatV1.10B1784,2013-03-22 05:01:00,
2013-03-22 00:06:00,23.6,18.6,30.08,East,83,1.0,4.0,81,0.00,,,0.00,WeatherCatV1.10B1784,2013-03-22 05:06:00,
2013-03-22 00:11:00,23.5,18.5,30.08,ESE,105,1.0,3.0,81,0.00,,,0.00,WeatherCatV1.10B1784,2013-03-22 05:11:00,
2013-03-22 00:16:00,23.4,18.4,30.08,ESE,103,1.0,2.0,81,0.00,,,0.00,WeatherCatV1.10B1784,2013-03-22 05:16:00,
2013-03-22 00:21:00,23.3,18.3,30.08,SE,125,0.0,2.0,81,0.00,,,0.00,WeatherCatV1.10B1784,2013-03-22 05:21:00,
2013-03-22 00:26:00,23.2,18.5,30.08,SE,125,0.0,2.0,82,0.00,,,0.00,WeatherCatV1.10B1784,2013-03-22 05:26:00,
2013-03-22 00:31:00,23.1,18.4,30.08,SE,125,0.0,1.0,82,0.00,,,0.00,WeatherCatV1.10B1784,2013-03-22 05:31:00,
2013-03-22 00:36:00,23.1,18.4,30.08,ESE,123,0.0,3.0,82,0.00,,,0.00,WeatherCatV1.10B1784,2013-03-22 05:36:00,
2013-03-22 00:41:00,23.1,18.4,30.08,East,98,2.0,3.0,82,0.00,,,0.00,WeatherCatV1.10B1784,2013-03-22 05:41:00,
2013-03-22 00:46:00,23.1,18.4,30.08,ESE,107,4.0,4.0,82,0.00,,,0.00,WeatherCatV1.10B1784,2013-03-22 05:46:00,
2013-03-22 00:51:00,23.0,18.3,30.08,ESE,111,0.0,1.0,82,0.00,,,0.00,WeatherCatV1.10B1784,2013-03-22 05:51:00,
2013-03-22 00:56:00,23.0,18.3,30.08,ESE,110,2.0,4.0,82,0.00,,,0.00,WeatherCatV1.10B1784,2013-03-22 05:56:00,
2013-03-22 01:01:00,22.9,18.5,30.08,ESE,109,3.0,3.0,83,0.00,,,0.00,WeatherCatV1.10B1784,2013-03-22 06:01:00,
2013-03-22 01:06:00,22.8,18.4,30.08,ESE,121,2.0,3.0,83,0.00,,,0.00,WeatherCatV1.10B1784,2013-03-22 06:06:00,
2013-03-22 01:11:00,22.7,18.3,30.09,ESE,115,0.0,3.0,83,0.00,,,0.00,WeatherCatV1.10B1784,2013-03-22 06:11:00,
2013-03-22 01:16:00,22.6,18.0,30.09,ESE,115,2.0,3.0,82,0.00,,,0.00,WeatherCatV1.10B1784,2013-03-22 06:16:00,
2013-03-22 01:21:00,22.5,18.1,30.09,ESE,115,0.0,0.0,83,0.00,,,0.00,WeatherCatV1.10B1784,2013-03-22 06:21:00,
2013-03-22 01:26:00,22.4,18.0,30.09,ESE,115,0.0,1.0,83,0.00,,,0.00,WeatherCatV1.10B1784,2013-03-22 06:26:00,
2013-03-22 01:31:00,22.2,17.8,30.09,ESE,112,1.0,2.0,83,0.00,,,0.00,WeatherCatV1.10B1784,2013-03-22 06:31:00,
2013-03-22 01:36:00,22.1,17.7,30.09,ESE,110,0.0,1.0,83,0.00,,,0.00,WeatherCatV1.10B1784,2013-03-22 06:36:00,
2013-03-22 01:41:00,22.0,17.9,30.09,ESE,110,0.0,1.0,84,0.00,,,0.00,WeatherCatV1.10B1784,2013-03-22 06:41:00,
2013-03-22 01:46:00,21.9,17.8,30.09,ESE,110,2.0,3.0,84,0.00,,,0.00,WeatherCatV1.10B1784,2013-03-22 06:46:00,
2013-03-22 01:51:00,21.8,17.4,30.09,ESE,104,1.0,6.0,83,0.00,,,0.00,WeatherCatV1.10B1784,2013-03-22 06:51:00,
2013-03-22 01:56:00,21.8,17.7,30.09,SSE,151,0.0,2.0,84,0.00,,,0.00,WeatherCatV1.10B1784,2013-03-22 06:56:00,
2013-03-22 02:01:00,21.8,17.7,30.09,SSE,149,0.0,3.0,84,0.00,,,0.00,WeatherCatV1.10B1784,2013-03-22 07:01:00,
2013-03-22 02:06:00,21.7,17.6,30.09,SSE,149,0.0,1.0,84,0.00,,,0.00,WeatherCatV1.10B1784,2013-03-22 07:06:00,
2013-03-22 02:11:00,21.6,17.5,30.09,SSE,149,0.0,1.0,84,0.00,,,0.00,WeatherCatV1.10B1784,2013-03-22 07:11:00,
2013-03-22 02:16:00,21.5,17.4,30.09,SSE,148,0.0,1.0,84,0.00,,,0.00,WeatherCatV1.10B1784,2013-03-22 07:16:00,
2013-03-22 02:21:00,21.5,17.4,30.09,SE,144,1.0,3.0,84,0.00,,,0.00,WeatherCatV1.10B1784,2013-03-22 07:21:00,
2013-03-22 02:26:00,21.4,17.3,30.09,SE,139,2.0,2.0,84,0.00,,,0.00,WeatherCatV1.10B1784,2013-03-22 07:26:00,
2013-03-22 02:31:00,21.3,17.0,30.09,SE,139,0.0,1.0,83,0.00,,,0.00,WeatherCatV1.10B1784,2013-03-22 07:31:00,
2013-03-22 02:36:00,21.3,17.0,30.09,ESE,110,1.0,3.0,83,0.00,,,0.00,WeatherCatV1.10B1784,2013-03-22 07:36:00,
2013-03-22 02:41:00,21.2,17.1,30.09,ESE,110,1.0,3.0,84,0.00,,,0.00,WeatherCatV1.10B1784,2013-03-22 07:41:00,
2013-03-22 02:46:00,21.1,17.0,30.09,ESE,110,1.0,2.0,84,0.00,,,0.00,WeatherCatV1.10B1784,2013-03-22 07:46:00,
2013-03-22 02:51:00,21.0,16.9,30.09,ESE,110,0.0,1.0,84,0.00,,,0.00,WeatherCatV1.10B1784,2013-03-22 07:51:00,
2013-03-22 02:56:00,20.9,16.8,30.09,ESE,108,0.0,2.0,84,0.00,,,0.00,WeatherCatV1.10B1784,2013-03-22 07:56:00,
2013-03-22 03:01:00,20.8,16.7,30.09,ESE,108,0.0,0.0,84,0.00,,,0.00,WeatherCatV1.10B1784,2013-03-22 08:01:00,
2013-03-22 03:06:00,20.7,16.6,30.08,ESE,123,1.0,1.0,84,0.00,,,0.00,WeatherCatV1.10B1784,2013-03-22 08:06:00,
2013-03-22 03:11:00,20.6,16.5,30.08,ESE,123,0.0,2.0,84,0.00,,,0.00,WeatherCatV1.10B1784,2013-03-22 08:11:00,
2013-03-22 03:16:00,20.5,16.7,30.08,ESE,122,0.0,1.0,85,0.00,,,0.00,WeatherCatV1.10B1784,2013-03-22 08:16:00,
2013-03-22 03:21:00,20.4,16.6,30.08,ESE,122,0.0,2.0,85,0.00,,,0.00,WeatherCatV1.10B1784,2013-03-22 08:21:00,
2013-03-22 03:26:00,20.3,16.5,30.08,ESE,112,0.0,2.0,85,0.00,,,0.00,WeatherCatV1.10B1784,2013-03-22 08:26:00,
2013-03-22 03:31:00,20.2,16.4,30.08,ESE,110,1.0,3.0,85,0.00,,,0.00,WeatherCatV1.10B1784,2013-03-22 08:31:00,
2013-03-22 03:36:00,20.2,16.4,30.08,ESE,110,0.0,1.0,85,0.00,,,0.00,WeatherCatV1.10B1784,2013-03-22 08:36:00,
2013-03-22 03:41:00,20.1,16.3,30.08,ESE,123,0.0,1.0,85,0.00,,,0.00,WeatherCatV1.10B1784,2013-03-22 08:41:00,
2013-03-22 03:46:00,20.0,16.2,30.07,ESE,118,1.0,4.0,85,0.00,,,0.00,WeatherCatV1.10B1784,2013-03-22 08:46:00,
2013-03-22 03:51:00,20.0,16.2,30.07,ESE,122,1.0,3.0,85,0.00,,,0.00,WeatherCatV1.10B1784,2013-03-22 08:51:00,
2013-03-22 03:56:00,19.9,16.1,30.07,ESE,116,0.0,2.0,85,0.00,,,0.00,WeatherCatV1.10B1784,2013-03-22 08:56:00,
2013-03-22 04:01:00,19.9,16.1,30.07,ESE,118,0.0,2.0,85,0.00,,,0.00,WeatherCatV1.10B1784,2013-03-22 09:01:00,
2013-03-22 04:06:00,19.8,16.0,30.07,SE,125,2.0,3.0,85,0.00,,,0.00,WeatherCatV1.10B1784,2013-03-22 09:06:00,
2013-03-22 04:11:00,19.8,16.0,30.07,SE,125,0.0,3.0,85,0.00,,,0.00,WeatherCatV1.10B1784,2013-03-22 09:11:00,
2013-03-22 04:16:00,19.7,15.9,30.07,SE,124,1.0,3.0,85,0.00,,,0.00,WeatherCatV1.10B1784,2013-03-22 09:16:00,
2013-03-22 04:21:00,19.7,15.7,30.07,SE,124,0.0,1.0,84,0.00,,,0.00,WeatherCatV1.10B1784,2013-03-22 09:21:00,
2013-03-22 04:26:00,19.6,15.6,30.07,ESE,123,1.0,1.0,84,0.00,,,0.00,WeatherCatV1.10B1784,2013-03-22 09:26:00,
2013-03-22 04:31:00,19.6,15.6,30.07,ESE,120,3.0,3.0,84,0.00,,,0.00,WeatherCatV1.10B1784,2013-03-22 09:31:00,
2013-03-22 04:36:00,19.6,15.6,30.06,East,98,1.0,4.0,84,0.00,,,0.00,WeatherCatV1.10B1784,2013-03-22 09:36:00,
2013-03-22 04:41:00,19.5,15.2,30.06,East,98,1.0,3.0,83,0.00,,,0.00,WeatherCatV1.10B1784,2013-03-22 09:41:00,
2013-03-22 04:47:00,19.5,15.5,30.06,East,98,0.0,1.0,84,0.00,,,0.00,WeatherCatV1.10B1784,2013-03-22 09:47:00,
2013-03-22 04:52:00,19.4,15.4,30.06,East,98,1.0,2.0,84,0.00,,,0.00,WeatherCatV1.10B1784,2013-03-22 09:52:00,
2013-03-22 04:57:00,19.3,15.3,30.06,East,98,0.0,2.0,84,0.00,,,0.00,WeatherCatV1.10B1784,2013-03-22 09:57:00,
2013-03-22 05:02:00,19.2,15.2,30.06,East,98,0.0,2.0,84,0.00,,,0.00,WeatherCatV1.10B1784,2013-03-22 10:02:00,
2013-03-22 05:07:00,19.1,15.1,30.06,East,98,0.0,2.0,84,0.00,,,0.00,WeatherCatV1.10B1784,2013-03-22 10:07:00,
2013-03-22 05:12:00,19.1,15.3,30.06,East,98,0.0,1.0,85,0.00,,,0.00,WeatherCatV1.10B1784,2013-03-22 10:12:00,
2013-03-22 05:17:00,19.0,15.2,30.06,SE,126,3.0,3.0,85,0.00,,,0.00,WeatherCatV1.10B1784,2013-03-22 10:17:00,
2013-03-22 05:21:00,19.0,15.2,30.06,SE,124,1.0,2.0,85,0.00,,,0.00,WeatherCatV1.10B1784,2013-03-22 10:21:00,
2013-03-22 05:27:00,19.0,15.2,30.06,ESE,121,1.0,2.0,85,0.00,,,0.00,WeatherCatV1.10B1784,2013-03-22 10:27:00,
2013-03-22 05:32:00,18.9,15.4,30.06,ESE,120,0.0,3.0,86,0.00,,,0.00,WeatherCatV1.10B1784,2013-03-22 10:32:00,
2013-03-22 05:37:00,18.9,15.4,30.06,ESE,120,0.0,0.0,86,0.00,,,0.00,WeatherCatV1.10B1784,2013-03-22 10:37:00,
2013-03-22 05:42:00,18.8,15.3,30.06,ESE,120,0.0,2.0,86,0.00,,,0.00,WeatherCatV1.10B1784,2013-03-22 10:42:00,
2013-03-22 05:47:00,18.7,15.2,30.06,ESE,120,0.0,1.0,86,0.00,,,0.00,WeatherCatV1.10B1784,2013-03-22 10:47:00,
2013-03-22 05:52:00,18.7,15.2,30.06,ESE,120,0.0,2.0,86,0.00,,,0.00,WeatherCatV1.10B1784,2013-03-22 10:52:00,
2013-03-22 05:57:00,18.6,15.1,30.06,ESE,120,1.0,2.0,86,0.00,,,0.00,WeatherCatV1.10B1784,2013-03-22 10:57:00,
2013-03-22 06:02:00,18.6,15.1,30.06,ESE,119,0.0,1.0,86,0.00,,,0.00,WeatherCatV1.10B1784,2013-03-22 11:02:00,
2013-03-22 06:07:00,18.7,15.2,30.06,ESE,118,0.0,3.0,86,0.00,,,0.00,WeatherCatV1.10B1784,2013-03-22 11:07:00,
2013-03-22 06:12:00,18.7,15.2,30.05,ESE,118,0.0,1.0,86,0.00,,,0.00,WeatherCatV1.10B1784,2013-03-22 11:12:00,
2013-03-22 06:17:00,18.8,15.3,30.05,ESE,118,1.0,1.0,86,0.00,,,0.00,WeatherCatV1.10B1784,2013-03-22 11:17:00,
2013-03-22 06:22:00,18.8,15.3,30.06,ESE,118,0.0,2.0,86,0.00,,,0.00,WeatherCatV1.10B1784,2013-03-22 11:22:00,
2013-03-22 06:27:00,18.9,15.4,30.05,ESE,112,2.0,3.0,86,0.00,,,0.00,WeatherCatV1.10B1784,2013-03-22 11:27:00,
2013-03-22 06:32:00,18.9,15.4,30.06,ESE,122,0.0,3.0,86,0.00,,,0.00,WeatherCatV1.10B1784,2013-03-22 11:32:00,
2013-03-22 06:37:00,18.9,15.4,30.06,ESE,121,0.0,1.0,86,0.00,,,0.00,WeatherCatV1.10B1784,2013-03-22 11:37:00,
2013-03-22 06:42:00,18.9,15.2,30.06,SE,133,1.0,4.0,85,0.00,,,0.00,WeatherCatV1.10B1784,2013-03-22 11:42:00,
2013-03-22 06:47:00,18.9,15.2,30.06,SE,131,0.0,1.0,85,0.00,,,0.00,WeatherCatV1.10B1784,2013-03-22 11:47:00,
2013-03-22 06:52:00,18.9,15.2,30.06,SE,131,1.0,2.0,85,0.00,,,0.00,WeatherCatV1.10B1784,2013-03-22 11:52:00,
2013-03-22 06:57:00,18.8,15.1,30.06,SE,130,0.0,1.0,85,0.00,,,0.00,WeatherCatV1.10B1784,2013-03-22 11:57:00,
2013-03-22 07:02:00,18.8,15.1,30.06,SE,130,0.0,1.0,85,0.00,,,0.00,WeatherCatV1.10B1784,2013-03-22 12:02:00,
2013-03-22 07:07:00,18.8,15.1,30.06,SE,130,0.0,1.0,85,0.00,,,0.00,WeatherCatV1.10B1784,2013-03-22 12:07:00,
2013-03-22 07:12:00,18.8,15.1,30.06,SE,130,2.0,3.0,85,0.00,,,0.00,WeatherCatV1.10B1784,2013-03-22 12:12:00,
2013-03-22 07:17:00,18.8,15.1,30.06,ESE,123,1.0,3.0,85,0.00,,,0.00,WeatherCatV1.10B1784,2013-03-22 12:17:00,
2013-03-22 07:22:00,18.8,15.1,30.06,ENE,74,2.0,3.0,85,0.00,,,0.00,WeatherCatV1.10B1784,2013-03-22 12:22:00,
2013-03-22 07:27:00,18.8,15.1,30.06,East,83,0.0,2.0,85,0.00,,,0.00,WeatherCatV1.10B1784,2013-03-22 12:27:00,
2013-03-22 07:32:00,18.8,15.1,30.06,SE,124,0.0,3.0,85,0.00,,,0.00,WeatherCatV1.10B1784,2013-03-22 12:32:00,
2013-03-22 07:37:00,18.9,15.4,30.06,SE,124,2.0,3.0,86,0.00,,,0.00,WeatherCatV1.10B1784,2013-03-22 12:37:00,
2013-03-22 07:42:00,18.9,15.4,30.06,ESE,113,0.0,2.0,86,0.00,,,0.00,WeatherCatV1.10B1784,2013-03-22 12:42:00,
2013-03-22 07:47:00,19.0,15.5,30.06,ESE,120,0.0,3.0,86,0.00,,,0.00,WeatherCatV1.10B1784,2013-03-22 12:47:00,
2013-03-22 07:52:00,19.0,15.5,30.06,ESE,118,0.0,2.0,86,0.00,,,0.00,WeatherCatV1.10B1784,2013-03-22 12:52:00,
2013-03-22 07:57:00,19.1,15.6,30.07,ESE,118,0.0,2.0,86,0.00,,,0.00,WeatherCatV1.10B1784,2013-03-22 12:57:00,
2013-03-22 08:02:00,19.1,15.6,30.06,ESE,118,1.0,1.0,86,0.00,,,0.00,WeatherCatV1.10B1784,2013-03-22 13:02:00,
2013-03-22 08:07:00,19.2,15.7,30.06,ESE,118,2.0,3.0,86,0.00,,,0.00,WeatherCatV1.10B1784,2013-03-22 13:07:00,
2013-03-22 08:12:00,19.3,15.8,30.06,ESE,118,0.0,2.0,86,0.00,,,0.00,WeatherCatV1.10B1784,2013-03-22 13:12:00,
2013-03-22 08:17:00,19.4,15.6,30.06,ESE,118,1.0,3.0,85,0.00,,,0.00,WeatherCatV1.10B1784,2013-03-22 13:17:00,
2013-03-22 08:22:00,19.5,15.7,30.06,ESE,118,0.0,0.0,85,0.00,,,0.00,WeatherCatV1.10B1784,2013-03-22 13:22:00,
2013-03-22 08:27:00,19.7,15.9,30.06,ESE,118,1.0,3.0,85,0.00,,,0.00,WeatherCatV1.10B1784,2013-03-22 13:27:00,
2013-03-22 08:32:00,19.8,16.0,30.05,ESE,118,0.0,1.0,85,0.00,,,0.00,WeatherCatV1.10B1784,2013-03-22 13:32:00,
2013-03-22 08:37:00,20.0,16.0,30.06,ESE,113,2.0,4.0,84,0.00,,,0.00,WeatherCatV1.10B1784,2013-03-22 13:37:00,
2013-03-22 08:42:00,20.2,16.2,30.05,ESE,105,0.0,2.0,84,0.00,,,0.00,WeatherCatV1.10B1784,2013-03-22 13:42:00,
2013-03-22 08:47:00,20.5,16.5,30.05,East,89,0.0,3.0,84,0.00,,,0.00,WeatherCatV1.10B1784,2013-03-22 13:47:00,
2013-03-22 08:52:00,20.7,16.6,30.05,East,87,1.0,1.0,84,0.00,,,0.00,WeatherCatV1.10B1784,2013-03-22 13:52:00,
2013-03-22 08:57:00,21.1,16.8,30.05,SE,130,2.0,5.0,83,0.00,,,0.00,WeatherCatV1.10B1784,2013-03-22 13:57:00,
2013-03-22 09:02:00,21.3,16.7,30.05,East,87,3.0,5.0,82,0.00,,,0.00,WeatherCatV1.10B1784,2013-03-22 14:02:00,
2013-03-22 09:07:00,21.5,16.9,30.05,ESE,106,0.0,2.0,82,0.00,,,0.00,WeatherCatV1.10B1784,2013-03-22 14:07:00,
2013-03-22 09:12:00,21.8,16.9,30.05,ESE,113,1.0,3.0,81,0.00,,,0.00,WeatherCatV1.10B1784,2013-03-22 14:12:00,
2013-03-22 09:17:00,21.8,16.9,30.06,ESE,118,2.0,4.0,81,0.00,,,0.00,WeatherCatV1.10B1784,2013-03-22 14:17:00,
2013-03-22 09:22:00,21.8,16.6,30.05,East,93,1.0,5.0,80,0.00,,,0.00,WeatherCatV1.10B1784,2013-03-22 14:22:00,
2013-03-22 09:27:00,21.8,16.6,30.06,ESE,108,0.0,3.0,80,0.00,,,0.00,WeatherCatV1.10B1784,2013-03-22 14:27:00,
2013-03-22 09:32:00,22.0,16.8,30.06,ESE,109,0.0,3.0,80,0.00,,,0.00,WeatherCatV1.10B1784,2013-03-22 14:32:00,
2013-03-22 09:37:00,22.1,17.2,30.06,ESE,115,2.0,3.0,81,0.00,,,0.00,WeatherCatV1.10B1784,2013-03-22 14:37:00,
2013-03-22 09:42:00,22.5,17.6,30.06,ESE,115,0.0,2.0,81,0.00,,,0.00,WeatherCatV1.10B1784,2013-03-22 14:42:00,
2013-03-22 09:47:00,22.7,17.5,30.06,SE,129,2.0,3.0,80,0.00,,,0.00,WeatherCatV1.10B1784,2013-03-22 14:47:00,
2013-03-22 09:52:00,22.9,17.7,30.06,ESE,117,2.0,4.0,80,0.00,,,0.00,WeatherCatV1.10B1784,2013-03-22 14:52:00,
2013-03-22 09:57:00,23.2,17.7,30.06,South,175,6.0,6.0,79,0.00,,,0.00,WeatherCatV1.10B1784,2013-03-22 14:57:00,
2013-03-22 10:02:00,23.3,17.8,30.06,ESE,114,1.0,9.0,79,0.00,,,0.00,WeatherCatV1.10B1784,2013-03-22 15:02:00,
2013-03-22 10:07:00,23.4,17.6,30.05,ESE,112,2.0,5.0,78,0.00,,,0.00,WeatherCatV1.10B1784,2013-03-22 15:07:00,
2013-03-22 10:12:00,23.5,18.0,30.06,ESE,112,0.0,5.0,79,0.00,,,0.00,WeatherCatV1.10B1784,2013-03-22 15:12:00,
2013-03-22 10:17:00,23.8,18.3,30.05,ESE,119,0.0,3.0,79,0.00,,,0.00,WeatherCatV1.10B1784,2013-03-22 15:17:00,
2013-03-22 10:22:00,24.0,18.2,30.06,SE,135,0.0,5.0,78,0.00,,,0.00,WeatherCatV1.10B1784,2013-03-22 15:22:00,
2013-03-22 10:27:00,24.2,18.4,30.06,SE,129,0.0,7.0,78,0.00,,,0.00,WeatherCatV1.10B1784,2013-03-22 15:27:00,
2013-03-22 10:32:00,24.5,18.6,30.06,ESE,114,0.0,5.0,78,0.00,,,0.00,WeatherCatV1.10B1784,2013-03-22 15:32:00,
2013-03-22 10:37:00,24.9,18.7,30.06,ESE,113,0.0,2.0,77,0.00,,,0.00,WeatherCatV1.10B1784,2013-03-22 15:37:00,
2013-03-22 10:42:00,25.3,18.8,30.06,ESE,108,1.0,3.0,76,0.00,,,0.00,WeatherCatV1.10B1784,2013-03-22 15:42:00,
2013-03-22 10:47:00,25.5,19.0,30.06,ESE,118,1.0,2.0,76,0.00,,,0.00,WeatherCatV1.10B1784,2013-03-22 15:47:00,
2013-03-22 10:52:00,25.6,18.8,30.06,ESE,109,0.0,1.0,75,0.00,,,0.00,WeatherCatV1.10B1784,2013-03-22 15:52:00,
2013-03-22 10:57:00,25.6,18.8,30.06,East,85,2.0,2.0,75,0.00,,,0.00,WeatherCatV1.10B1784,2013-03-22 15:57:00,
2013-03-22 11:02:00,25.6,18.8,30.06,ESE,116,1.0,4.0,75,0.00,,,0.00,WeatherCatV1.10B1784,2013-03-22 16:02:00,
2013-03-22 11:07:00,25.5,19.0,30.06,SE,128,1.0,1.0,76,0.00,,,0.00,WeatherCatV1.10B1784,2013-03-22 16:07:00,
2013-03-22 11:12:00,25.7,18.9,30.06,ESE,113,2.0,3.0,75,0.00,,,0.00,WeatherCatV1.10B1784,2013-03-22 16:12:00,
2013-03-22 11:17:00,25.7,18.9,30.05,SE,135,0.0,4.0,75,0.00,,,0.00,WeatherCatV1.10B1784,2013-03-22 16:17:00,
2013-03-22 11:22:00,25.7,18.9,30.05,SSE,151,6.0,7.0,75,0.00,,,0.00,WeatherCatV1.10B1784,2013-03-22 16:22:00,
2013-03-22 11:27:00,25.6,18.8,30.06,SE,131,3.0,6.0,75,0.00,,,0.00,WeatherCatV1.10B1784,2013-03-22 16:27:00,
2013-03-22 11:32:00,25.7,19.2,30.06,SE,133,2.0,5.0,76,0.00,,,0.00,WeatherCatV1.10B1784,2013-03-22 16:32:00,
2013-03-22 11:37:00,25.9,19.4,30.05,ESE,123,1.0,4.0,76,0.00,,,0.00,WeatherCatV1.10B1784,2013-03-22 16:37:00,
2013-03-22 11:42:00,26.2,19.4,30.05,ESE,120,1.0,4.0,75,0.00,,,0.00,WeatherCatV1.10B1784,2013-03-22 16:42:00,
2013-03-22 11:47:00,26.4,19.6,30.05,ESE,120,1.0,3.0,75,0.00,,,0.00,WeatherCatV1.10B1784,2013-03-22 16:47:00,
2013-03-22 11:52:00,26.5,19.4,30.05,ESE,103,2.0,8.0,74,0.00,,,0.00,WeatherCatV1.10B1784,2013-03-22 16:52:00,
2013-03-22 11:57:00,26.7,19.5,30.05,ESE,117,2.0,3.0,74,0.00,,,0.00,WeatherCatV1.10B1784,2013-03-22 16:57:00,
2013-03-22 12:02:00,27.3,20.1,30.05,ESE,116,0.0,2.0,74,0.00,,,0.00,WeatherCatV1.10B1784,2013-03-22 17:02:00,
2013-03-22 12:07:00,27.8,20.0,30.05,SE,131,2.0,8.0,72,0.00,,,0.00,WeatherCatV1.10B1784,2013-03-22 17:07:00,
2013-03-22 12:12:00,27.8,20.0,30.05,SSE,160,4.0,8.0,72,0.00,,,0.00,WeatherCatV1.10B1784,2013-03-22 17:12:00,
2013-03-22 12:17:00,27.8,20.0,30.05,SE,137,0.0,1.0,72,0.00,,,0.00,WeatherCatV1.10B1784,2013-03-22 17:17:00,
2013-03-22 12:22:00,28.1,20.3,30.05,ESE,123,3.0,4.0,72,0.00,,,0.00,WeatherCatV1.10B1784,2013-03-22 17:22:00,
2013-03-22 12:27:00,28.1,20.3,30.05,SE,137,3.0,4.0,72,0.00,,,0.00,WeatherCatV1.10B1784,2013-03-22 17:27:00,
2013-03-22 12:32:00,28.4,20.2,30.05,SE,143,3.0,6.0,71,0.00,,,0.00,WeatherCatV1.10B1784,2013-03-22 17:32:00,
2013-03-22 12:37:00,28.7,20.5,30.05,SSE,150,3.0,7.0,71,0.00,,,0.00,WeatherCatV1.10B1784,2013-03-22 17:37:00,
2013-03-22 12:42:00,28.8,20.3,30.04,ESE,116,3.0,6.0,70,0.00,,,0.00,WeatherCatV1.10B1784,2013-03-22 17:42:00,
2013-03-22 12:47:00,29.2,20.7,30.04,ESE,122,2.0,6.0,70,0.00,,,0.00,WeatherCatV1.10B1784,2013-03-22 17:47:00,
2013-03-22 12:52:00,29.7,21.1,30.05,SE,126,2.0,5.0,70,0.00,,,0.00,WeatherCatV1.10B1784,2013-03-22 17:52:00,
2013-03-22 12:57:00,30.3,21.0,30.05,ESE,122,2.0,4.0,68,0.00,,,0.00,WeatherCatV1.10B1784,2013-03-22 17:57:00,
2013-03-22 13:02:00,30.5,20.9,30.05,ESE,113,1.0,4.0,67,0.00,,,0.00,WeatherCatV1.10B1784,2013-03-22 18:02:00,
2013-03-22 13:07:00,30.9,21.3,30.05,SE,125,3.0,3.0,67,0.00,,,0.00,WeatherCatV1.10B1784,2013-03-22 18:07:00,
2013-03-22 13:12:00,31.2,20.8,30.05,ESE,118,1.0,5.0,65,0.00,,,0.00,WeatherCatV1.10B1784,2013-03-22 18:12:00,
2013-03-22 13:17:00,31.1,20.7,30.05,ESE,118,3.0,3.0,65,0.00,,,0.00,WeatherCatV1.10B1784,2013-03-22 18:17:00,
2013-03-22 13:22:00,31.1,20.7,30.05,ESE,119,4.0,4.0,65,0.00,,,0.00,WeatherCatV1.10B1784,2013-03-22 18:22:00,
2013-03-22 13:27:00,31.0,20.6,30.05,SE,128,0.0,4.0,65,0.00,,,0.00,WeatherCatV1.10B1784,2013-03-22 18:27:00,
2013-03-22 13:32:00,31.0,20.6,30.05,SE,139,2.0,2.0,65,0.00,,,0.00,WeatherCatV1.10B1784,2013-03-22 18:32:00,
2013-03-22 13:37:00,30.9,20.5,30.05,SE,131,2.0,6.0,65,0.00,,,0.00,WeatherCatV1.10B1784,2013-03-22 18:37:00,
2013-03-22 13:42:00,30.6,20.3,30.05,SE,146,2.0,5.0,65,0.00,,,0.00,WeatherCatV1.10B1784,2013-03-22 18:42:00,
2013-03-22 13:47:00,30.7,20.7,30.05,ESE,112,4.0,4.0,66,0.00,,,0.00,WeatherCatV1.10B1784,2013-03-22 18:47:00,
2013-03-22 13:52:00,30.7,20.4,30.05,ESE,114,0.0,2.0,65,0.00,,,0.00,WeatherCatV1.10B1784,2013-03-22 18:52:00,
2013-03-22 13:57:00,30.8,20.8,30.05,ESE,114,2.0,3.0,66,0.00,,,0.00,WeatherCatV1.10B1784,2013-03-22 18:57:00,
2013-03-22 14:02:00,31.0,20.6,30.05,ESE,123,1.0,3.0,65,0.00,,,0.00,WeatherCatV1.10B1784,2013-03-22 19:02:00,
2013-03-22 14:07:00,31.1,21.1,30.05,ESE,123,2.0,2.0,66,0.00,,,0.00,WeatherCatV1.10B1784,2013-03-22 19:07:00,
2013-03-22 14:12:00,31.4,20.7,30.05,SE,135,1.0,4.0,64,0.00,,,0.00,WeatherCatV1.10B1784,2013-03-22 19:12:00,
2013-03-22 14:17:00,31.5,20.7,30.05,SE,145,1.0,2.0,64,0.00,,,0.00,WeatherCatV1.10B1784,2013-03-22 19:17:00,
2013-03-22 14:22:00,31.6,20.5,30.05,SE,145,1.0,3.0,63,0.00,,,0.00,WeatherCatV1.10B1784,2013-03-22 19:22:00,
2013-03-22 14:27:00,31.9,21.1,30.05,SE,137,2.0,2.0,64,0.00,,,0.00,WeatherCatV1.10B1784,2013-03-22 19:27:00,
2013-03-22 14:32:00,32.3,21.1,30.05,SE,133,2.0,7.0,63,0.00,,,0.00,WeatherCatV1.10B1784,2013-03-22 19:32:00,
2013-03-22 14:37:00,32.6,21.4,30.05,SSE,155,0.0,3.0,63,0.00,,,0.00,WeatherCatV1.10B1784,2013-03-22 19:37:00,
2013-03-22 14:42:00,33.1,21.5,30.05,SSE,166,3.0,5.0,62,0.00,,,0.00,WeatherCatV1.10B1784,2013-03-22 19:42:00,
2013-03-22 14:47:00,33.2,21.2,30.04,SSE,164,0.0,1.0,61,0.00,,,0.00,WeatherCatV1.10B1784,2013-03-22 19:47:00,
2013-03-22 14:52:00,33.4,21.4,30.04,SSE,149,0.0,4.0,61,0.00,,,0.00,WeatherCatV1.10B1784,2013-03-22 19:52:00,
2013-03-22 14:57:00,33.5,21.5,30.04,ESE,120,1.0,4.0,61,0.00,,,0.00,WeatherCatV1.10B1784,2013-03-22 19:57:00,
2013-03-22 15:02:00,34.0,22.4,30.04,ESE,120,0.0,2.0,62,0.00,,,0.00,WeatherCatV1.10B1784,2013-03-22 20:02:00,
2013-03-22 15:07:00,34.3,21.9,30.04,ESE,120,0.0,5.0,60,0.00,,,0.00,WeatherCatV1.10B1784,2013-03-22 20:07:00,
2013-03-22 15:12:00,33.6,21.2,30.04,ESE,121,3.0,8.0,60,0.00,,,0.00,WeatherCatV1.10B1784,2013-03-22 20:12:00,
2013-03-22 15:17:00,33.0,21.0,30.03,ESE,120,0.0,2.0,61,0.00,,,0.00,WeatherCatV1.10B1784,2013-03-22 20:17:00,
2013-03-22 15:22:00,33.0,21.4,30.03,SE,141,4.0,4.0,62,0.00,,,0.00,WeatherCatV1.10B1784,2013-03-22 20:22:00,
2013-03-22 15:27:00,33.3,21.7,30.03,SE,133,1.0,1.0,62,0.00,,,0.00,WeatherCatV1.10B1784,2013-03-22 20:27:00,
2013-03-22 15:32:00,33.7,21.7,30.03,SE,135,0.0,4.0,61,0.00,,,0.00,WeatherCatV1.10B1784,2013-03-22 20:32:00,
2013-03-22 15:37:00,33.7,22.1,30.03,SE,131,0.0,2.0,62,0.00,,,0.00,WeatherCatV1.10B1784,2013-03-22 20:37:00,
2013-03-22 15:42:00,33.9,21.9,30.03,SE,135,2.0,3.0,61,0.00,,,0.00,WeatherCatV1.10B1784,2013-03-22 20:42:00,
2013-03-22 15:47:00,33.7,21.7,30.03,SE,127,1.0,2.0,61,0.00,,,0.00,WeatherCatV1.10B1784,2013-03-22 20:47:00,
2013-03-22 15:52:00,33.6,21.6,30.03,SE,127,0.0,3.0,61,0.00,,,0.00,WeatherCatV1.10B1784,2013-03-22 20:52:00,
2013-03-22 15:57:00,33.5,21.5,30.03,SE,142,0.0,4.0,61,0.00,,,0.00,WeatherCatV1.10B1784,2013-03-22 20:57:00,
2013-03-22 16:02:00,33.4,21.4,30.03,SE,141,0.0,2.0,61,0.00,,,0.00,WeatherCatV1.10B1784,2013-03-22 21:02:00,
2013-03-22 16:07:00,33.3,22.1,30.03,ESE,118,2.0,4.0,63,0.00,,,0.00,WeatherCatV1.10B1784,2013-03-22 21:07:00,
2013-03-22 16:12:00,33.4,22.2,30.03,SE,126,2.0,2.0,63,0.00,,,0.00,WeatherCatV1.10B1784,2013-03-22 21:12:00,
2013-03-22 16:17:00,33.7,21.7,30.03,SE,133,4.0,4.0,61,0.00,,,0.00,WeatherCatV1.10B1784,2013-03-22 21:17:00,
2013-03-22 16:22:00,33.8,22.6,30.03,SE,127,3.0,5.0,63,0.00,,,0.00,WeatherCatV1.10B1784,2013-03-22 21:22:00,
2013-03-22 16:27:00,33.9,22.3,30.03,ESE,122,3.0,3.0,62,0.00,,,0.00,WeatherCatV1.10B1784,2013-03-22 21:27:00,
2013-03-22 16:32:00,33.7,22.1,30.03,ESE,120,0.0,2.0,62,0.00,,,0.00,WeatherCatV1.10B1784,2013-03-22 21:32:00,
2013-03-22 16:37:00,33.9,22.3,30.03,ESE,120,0.0,4.0,62,0.00,,,0.00,WeatherCatV1.10B1784,2013-03-22 21:37:00,
2013-03-22 16:42:00,34.1,22.5,30.03,SE,135,2.0,4.0,62,0.00,,,0.00,WeatherCatV1.10B1784,2013-03-22 21:42:00,
2013-03-22 16:47:00,34.2,22.6,30.03,SE,135,1.0,3.0,62,0.00,,,0.00,WeatherCatV1.10B1784,2013-03-22 21:47:00,
2013-03-22 16:52:00,34.5,22.1,30.02,SE,130,2.0,2.0,60,0.00,,,0.00,WeatherCatV1.10B1784,2013-03-22 21:52:00,
2013-03-22 16:57:00,34.3,21.9,30.02,SE,132,2.0,4.0,60,0.00,,,0.00,WeatherCatV1.10B1784,2013-03-22 21:57:00,
2013-03-22 17:02:00,34.0,22.0,30.02,SE,132,0.0,1.0,61,0.00,,,0.00,WeatherCatV1.10B1784,2013-03-22 22:02:00,
2013-03-22 17:07:00,34.1,22.1,30.03,SE,134,0.0,3.0,61,0.00,,,0.00,WeatherCatV1.10B1784,2013-03-22 22:07:00,
2013-03-22 17:12:00,34.3,22.3,30.03,SE,139,2.0,5.0,61,0.00,,,0.00,WeatherCatV1.10B1784,2013-03-22 22:12:00,
2013-03-22 17:17:00,34.2,22.2,30.03,SE,138,0.0,4.0,61,0.00,,,0.00,WeatherCatV1.10B1784,2013-03-22 22:17:00,
2013-03-22 17:22:00,34.0,22.0,30.03,SE,139,0.0,6.0,61,0.00,,,0.00,WeatherCatV1.10B1784,2013-03-22 22:22:00,
2013-03-22 17:27:00,33.8,22.2,30.03,ESE,120,0.0,1.0,62,0.00,,,0.00,WeatherCatV1.10B1784,2013-03-22 22:27:00,
2013-03-22 17:32:00,33.7,22.1,30.03,ESE,120,3.0,3.0,62,0.00,,,0.00,WeatherCatV1.10B1784,2013-03-22 22:32:00,
2013-03-22 17:37:00,33.4,21.4,30.03,SE,128,0.0,1.0,61,0.00,,,0.00,WeatherCatV1.10B1784,2013-03-22 22:37:00,
2013-03-22 17:42:00,33.2,21.6,30.03,SE,128,3.0,3.0,62,0.00,,,0.00,WeatherCatV1.10B1784,2013-03-22 22:42:00,
2013-03-22 17:47:00,33.2,21.6,30.03,SE,137,0.0,1.0,62,0.00,,,0.00,WeatherCatV1.10B1784,2013-03-22 22:47:00,
2013-03-22 17:52:00,33.2,21.6,30.03,SE,137,2.0,3.0,62,0.00,,,0.00,WeatherCatV1.10B1784,2013-03-22 22:52:00,
2013-03-22 17:57:00,33.3,22.1,30.03,SE,139,4.0,4.0,63,0.00,,,0.00,WeatherCatV1.10B1784,2013-03-22 22:57:00,
2013-03-22 18:02:00,33.1,21.5,30.03,SE,140,0.0,5.0,62,0.00,,,0.00,WeatherCatV1.10B1784,2013-03-22 23:02:00,
2013-03-22 18:07:00,32.9,21.7,30.03,SE,140,0.0,0.0,63,0.00,,,0.00,WeatherCatV1.10B1784,2013-03-22 23:07:00,
2013-03-22 18:12:00,32.9,21.7,30.03,SE,140,0.0,2.0,63,0.00,,,0.00,WeatherCatV1.10B1784,2013-03-22 23:12:00,
2013-03-22 18:17:00,33.0,21.4,30.03,SE,140,1.0,1.0,62,0.00,,,0.00,WeatherCatV1.10B1784,2013-03-22 23:17:00,
2013-03-22 18:22:00,32.9,21.7,30.04,SE,140,0.0,1.0,63,0.00,,,0.00,WeatherCatV1.10B1784,2013-03-22 23:22:00,
2013-03-22 18:27:00,32.9,21.7,30.04,SE,140,0.0,0.0,63,0.00,,,0.00,WeatherCatV1.10B1784,2013-03-22 23:27:00,
2013-03-22 18:32:00,32.8,21.6,30.04,SE,140,0.0,1.0,63,0.00,,,0.00,WeatherCatV1.10B1784,2013-03-22 23:32:00,
2013-03-22 18:37:00,32.8,21.6,30.04,SE,140,0.0,0.0,63,0.00,,,0.00,WeatherCatV1.10B1784,2013-03-22 23:37:00,
2013-03-22 18:42:00,32.9,21.7,30.04,SE,140,0.0,2.0,63,0.00,,,0.00,WeatherCatV1.10B1784,2013-03-22 23:42:00,
2013-03-22 18:47:00,32.8,21.6,30.04,SE,140,1.0,3.0,63,0.00,,,0.00,WeatherCatV1.10B1784,2013-03-22 23:47:00,
2013-03-22 18:52:00,32.7,21.5,30.04,SE,140,0.0,0.0,63,0.00,,,0.00,WeatherCatV1.10B1784,2013-03-22 23:52:00,
2013-03-22 18:57:00,32.6,21.4,30.04,SE,140,0.0,1.0,63,0.00,,,0.00,WeatherCatV1.10B1784,2013-03-22 23:57:00,
2013-03-22 19:02:00,32.5,21.7,30.04,SE,140,0.0,1.0,64,0.00,,,0.00,WeatherCatV1.10B1784,2013-03-23 00:02:00,
2013-03-22 19:07:00,32.4,21.6,30.04,SE,140,0.0,0.0,64,0.00,,,0.00,WeatherCatV1.10B1784,2013-03-23 00:07:00,
2013-03-22 19:12:00,32.3,21.5,30.04,SE,140,0.0,2.0,64,0.00,,,0.00,WeatherCatV1.10B1784,2013-03-23 00:12:00,
2013-03-22 19:17:00,32.3,21.5,30.04,SE,140,1.0,1.0,64,0.00,,,0.00,WeatherCatV1.10B1784,2013-03-23 00:17:00,
2013-03-22 19:22:00,32.2,21.8,30.05,SE,140,0.0,2.0,65,0.00,,,0.00,WeatherCatV1.10B1784,2013-03-23 00:22:00,
2013-03-22 19:27:00,32.1,21.7,30.05,SE,139,0.0,2.0,65,0.00,,,0.00,WeatherCatV1.10B1784,2013-03-23 00:27:00,
2013-03-22 19:32:00,32.0,21.6,30.05,SE,139,0.0,1.0,65,0.00,,,0.00,WeatherCatV1.10B1784,2013-03-23 00:32:00,
2013-03-22 19:37:00,31.9,21.9,30.05,SE,140,0.0,1.0,66,0.00,,,0.00,WeatherCatV1.10B1784,2013-03-23 00:37:00,
2013-03-22 19:42:00,31.8,21.8,30.05,SE,140,0.0,0.0,66,0.00,,,0.00,WeatherCatV1.10B1784,2013-03-23 00:42:00,
2013-03-22 19:47:00,31.8,21.8,30.06,SE,140,0.0,1.0,66,0.00,,,0.00,WeatherCatV1.10B1784,2013-03-23 00:47:00,
2013-03-22 19:52:00,31.7,22.0,30.06,SE,137,0.0,1.0,67,0.00,,,0.00,WeatherCatV1.10B1784,2013-03-23 00:52:00,
2013-03-22 19:57:00,31.6,21.9,30.06,SE,137,1.0,1.0,67,0.00,,,0.00,WeatherCatV1.10B1784,2013-03-23 00:57:00,
2013-03-22 20:02:00,31.5,21.8,30.06,SE,137,0.0,2.0,67,0.00,,,0.00,WeatherCatV1.10B1784,2013-03-23 01:02:00,
2013-03-22 20:07:00,31.4,22.1,30.06,SE,137,0.0,1.0,68,0.00,,,0.00,WeatherCatV1.10B1784,2013-03-23 01:07:00,
2013-03-22 20:12:00,31.4,22.1,30.06,SE,137,0.0,1.0,68,0.00,,,0.00,WeatherCatV1.10B1784,2013-03-23 01:12:00,
2013-03-22 20:17:00,31.3,22.0,30.06,SE,137,0.0,1.0,68,0.00,,,0.00,WeatherCatV1.10B1784,2013-03-23 01:17:00,
2013-03-22 20:22:00,31.2,22.2,30.06,SE,137,0.0,1.0,69,0.00,,,0.00,WeatherCatV1.10B1784,2013-03-23 01:22:00,
2013-03-22 20:27:00,31.2,22.2,30.06,SE,137,0.0,1.0,69,0.00,,,0.00,WeatherCatV1.10B1784,2013-03-23 01:27:00,
2013-03-22 20:32:00,31.1,22.1,30.07,SE,137,0.0,1.0,69,0.00,,,0.00,WeatherCatV1.10B1784,2013-03-23 01:32:00,
2013-03-22 20:37:00,31.1,22.5,30.07,SE,137,0.0,0.0,70,0.00,,,0.00,WeatherCatV1.10B1784,2013-03-23 01:37:00,
2013-03-22 20:42:00,31.1,22.5,30.07,SE,137,0.0,0.0,70,0.00,,,0.00,WeatherCatV1.10B1784,2013-03-23 01:42:00,
2013-03-22 20:47:00,31.1,22.5,30.07,SE,137,0.0,1.0,70,0.00,,,0.00,WeatherCatV1.10B1784,2013-03-23 01:47:00,
2013-03-22 20:52:00,31.0,22.4,30.07,SE,137,0.0,1.0,70,0.00,,,0.00,WeatherCatV1.10B1784,2013-03-23 01:52:00,
2013-03-22 20:57:00,31.0,22.4,30.08,SE,137,0.0,1.0,70,0.00,,,0.00,WeatherCatV1.10B1784,2013-03-23 01:57:00,
2013-03-22 21:02:00,31.0,22.7,30.08,SE,137,0.0,1.0,71,0.00,,,0.00,WeatherCatV1.10B1784,2013-03-23 02:02:00,
2013-03-22 21:07:00,31.0,22.7,30.07,SE,137,0.0,0.0,71,0.00,,,0.00,WeatherCatV1.10B1784,2013-03-23 02:07:00,
2013-03-22 21:12:00,30.9,22.6,30.08,SE,137,0.0,1.0,71,0.00,,,0.00,WeatherCatV1.10B1784,2013-03-23 02:12:00,
2013-03-22 21:17:00,30.9,22.3,30.08,SE,137,0.0,3.0,70,0.00,,,0.00,WeatherCatV1.10B1784,2013-03-23 02:17:00,
2013-03-22 21:22:00,30.9,22.3,30.08,SE,137,0.0,1.0,70,0.00,,,0.00,WeatherCatV1.10B1784,2013-03-23 02:22:00,
2013-03-22 21:27:00,30.8,22.2,30.08,SE,137,0.0,0.0,70,0.00,,,0.00,WeatherCatV1.10B1784,2013-03-23 02:27:00,
2013-03-22 21:32:00,30.7,22.4,30.07,SE,137,0.0,0.0,71,0.00,,,0.00,WeatherCatV1.10B1784,2013-03-23 02:32:00,
2013-03-22 21:37:00,30.6,22.3,30.07,SE,137,0.0,1.0,71,0.00,,,0.00,WeatherCatV1.10B1784,2013-03-23 02:37:00,
2013-03-22 21:42:00,30.5,22.2,30.08,SE,137,0.0,1.0,71,0.00,,,0.00,WeatherCatV1.10B1784,2013-03-23 02:42:00,
2013-03-22 21:47:00,30.3,22.4,30.08,SE,137,1.0,1.0,72,0.00,,,0.00,WeatherCatV1.10B1784,2013-03-23 02:47:00,
2013-03-22 21:52:00,30.1,22.2,30.08,SE,137,0.0,1.0,72,0.00,,,0.00,WeatherCatV1.10B1784,2013-03-23 02:52:00,
2013-03-22 21:57:00,30.0,22.1,30.08,SE,137,0.0,0.0,72,0.00,,,0.00,WeatherCatV1.10B1784,2013-03-23 02:57:00,
2013-03-22 22:02:00,29.8,21.9,30.08,SE,137,0.0,0.0,72,0.00,,,0.00,WeatherCatV1.10B1784,2013-03-23 03:02:00,
2013-03-22 22:07:00,29.6,22.0,30.08,SE,137,0.0,0.0,73,0.00,,,0.00,WeatherCatV1.10B1784,2013-03-23 03:07:00,
2013-03-22 22:12:00,29.3,21.7,30.08,SE,137,0.0,0.0,73,0.00,,,0.00,WeatherCatV1.10B1784,2013-03-23 03:12:00,
2013-03-22 22:17:00,29.1,21.9,30.08,SE,137,0.0,0.0,74,0.00,,,0.00,WeatherCatV1.10B1784,2013-03-23 03:17:00,
2013-03-22 22:22:00,28.9,21.7,30.08,SE,137,0.0,0.0,74,0.00,,,0.00,WeatherCatV1.10B1784,2013-03-23 03:22:00,
2013-03-22 22:27:00,28.7,21.5,30.08,SE,137,0.0,0.0,74,0.00,,,0.00,WeatherCatV1.10B1784,2013-03-23 03:27:00,
2013-03-22 22:32:00,28.4,21.5,30.08,SE,137,0.0,0.0,75,0.00,,,0.00,WeatherCatV1.10B1784,2013-03-23 03:32:00,
2013-03-22 22:37:00,28.1,21.2,30.08,SE,137,0.0,0.0,75,0.00,,,0.00,WeatherCatV1.10B1784,2013-03-23 03:37:00,
2013-03-22 22:42:00,27.9,21.3,30.08,SE,137,0.0,0.0,76,0.00,,,0.00,WeatherCatV1.10B1784,2013-03-23 03:42:00,
2013-03-22 22:47:00,27.6,21.4,30.08,SE,137,0.0,0.0,77,0.00,,,0.00,WeatherCatV1.10B1784,2013-03-23 03:47:00,
2013-03-22 22:52:00,27.5,21.3,30.08,SE,137,0.0,0.0,77,0.00,,,0.00,WeatherCatV1.10B1784,2013-03-23 03:52:00,
2013-03-22 22:57:00,27.4,21.5,30.09,SE,137,0.0,0.0,78,0.00,,,0.00,WeatherCatV1.10B1784,2013-03-23 03:57:00,
2013-03-22 23:00:00,27.3,21.4,30.09,SE,137,0.0,0.0,78,0.00,,,0.00,WeatherCatV1.10B1784,2013-03-23 04:00:00,
2013-03-22 23:05:00,27.2,21.3,30.08,SE,137,0.0,0.0,78,0.00,,,0.00,WeatherCatV1.10B1784,2013-03-23 04:05:00,
2013-03-22 23:06:00,27.1,21.2,30.08,SE,137,0.0,0.0,78,0.00,,,0.00,WeatherCatV1.10B1784,2013-03-23 04:06:00,
2013-03-22 23:11:00,27.1,21.5,30.07,SE,137,0.0,0.0,79,0.00,,,0.00,WeatherCatV1.10B1784,2013-03-23 04:11:00,
2013-03-22 23:16:00,27.1,21.8,30.08,SE,137,0.0,0.0,80,0.00,,,0.00,WeatherCatV1.10B1784,2013-03-23 04:16:00,
2013-03-22 23:21:00,27.0,21.7,30.07,SE,137,0.0,0.0,80,0.00,,,0.00,WeatherCatV1.10B1784,2013-03-23 04:21:00,
2013-03-22 23:26:00,27.0,21.7,30.07,SE,137,0.0,0.0,80,0.00,,,0.00,WeatherCatV1.10B1784,2013-03-23 04:26:00,
2013-03-22 23:31:00,26.9,21.6,30.07,SE,137,0.0,0.0,80,0.00,,,0.00,WeatherCatV1.10B1784,2013-03-23 04:31:00,
2013-03-22 23:36:00,26.8,21.5,30.08,SE,137,0.0,0.0,80,0.00,,,0.00,WeatherCatV1.10B1784,2013-03-23 04:36:00,
2013-03-22 23:41:00,26.6,21.3,30.09,SE,137,0.0,0.0,80,0.00,,,0.00,WeatherCatV1.10B1784,2013-03-23 04:41:00,
2013-03-22 23:46:00,26.4,21.4,30.10,SE,137,0.0,0.0,81,0.00,,,0.00,WeatherCatV1.10B1784,2013-03-23 04:46:00,
2013-03-22 23:51:00,26.3,21.3,30.09,SE,137,0.0,0.0,81,0.00,,,0.00,WeatherCatV1.10B1784,2013-03-23 04:51:00,
2013-03-22 23:56:00,26.1,21.1,30.10,SE,137,0.0,0.0,81,0.00,,,0.00,WeatherCatV1.10B1784,2013-03-23 04:56:00,